Time;durP1;ratioP1;P1;durP2;ratioP2;P2;SDS_P1;SDS_P2;PMS_P1;PMS_P2;Temp;Humidity;BMP_temperature;BMP_pressure;BME280_temperature;BME280_humidity;BME280_pressure;Samples;Min_cycle;Max_cycle;Signal;HPM_P1;HPM_P2
2023/11/15 00:00:40;;;;;;;7.70;3.40;;;;;;;9.12;93.48;95275.02;107147;1277;138450;-86
2023/11/15 00:03:25;;;;;;;5.30;2.40;;;;;;;9.09;93.36;95272.45;107248;1276;24254;-87
2023/11/15 00:05:51;;;;;;;10.50;4.90;;;;;;;9.07;93.51;95268.94;107074;1277;138695;-87
2023/11/15 00:08:17;;;;;;;9.00;4.00;;;;;;;9.04;93.57;95270.14;107321;1271;23926;-86
2023/11/15 00:10:43;;;;;;;7.70;3.70;;;;;;;9.02;93.89;95270.06;107315;1277;25396;-87
2023/11/15 00:13:10;;;;;;;37.20;16.60;;;;;;;9.01;94.24;95266.44;107123;1262;138343;-87
2023/11/15 00:15:36;;;;;;;7.70;3.20;;;;;;;8.99;94.55;95261.42;107242;1275;27715;-86
2023/11/15 00:18:04;;;;;;;14.20;5.70;;;;;;;8.97;94.84;95259.98;107124;1265;138493;-87
2023/11/15 00:20:34;;;;;;;17.10;6.80;;;;;;;8.94;95.00;95255.59;107273;1276;24219;-86
2023/11/15 00:23:01;;;;;;;12.80;4.90;;;;;;;8.91;95.34;95253.91;107230;1277;23191;-86
2023/11/15 00:25:28;;;;;;;14.90;6.90;;;;;;;8.88;95.44;95250.77;110210;1277;139284;-87
2023/11/15 00:27:56;;;;;;;12.60;5.50;;;;;;;8.86;95.98;95250.05;110355;1271;22303;-87
2023/11/15 00:30:22;;;;;;;19.00;8.70;;;;;;;8.83;96.40;95252.04;110258;1277;138161;-87
2023/11/15 00:32:50;;;;;;;26.70;12.20;;;;;;;8.80;96.48;95254.16;108927;1276;22538;-86
2023/11/15 00:35:16;;;;;;;15.20;6.00;;;;;;;8.79;96.25;95254.80;107180;1276;138472;-87
2023/11/15 00:37:42;;;;;;;9.70;4.20;;;;;;;8.79;96.75;95245.23;107287;1273;24286;-87
2023/11/15 00:40:14;;;;;;;20.10;7.50;;;;;;;8.79;96.62;95242.56;107254;1277;23084;-87
2023/11/15 00:42:44;;;;;;;20.20;8.70;;;;;;;8.78;96.63;95251.50;106869;1277;138342;-86
2023/11/15 00:45:11;;;;;;;29.80;12.10;;;;;;;8.77;96.61;95252.78;107284;1262;22748;-86
2023/11/15 00:47:40;;;;;;;30.40;13.10;;;;;;;8.77;96.65;95253.02;106953;1277;138516;-87
2023/11/15 00:50:07;;;;;;;25.80;12.20;;;;;;;8.76;96.60;95253.57;107294;1277;22543;-87
2023/11/15 00:52:33;;;;;;;37.30;16.30;;;;;;;8.76;96.43;95250.15;107268;1262;22707;-87
2023/11/15 00:54:59;;;;;;;13.50;5.40;;;;;;;8.77;96.62;95253.34;107213;1277;138499;-86
2023/11/15 00:57:25;;;;;;;25.60;11.40;;;;;;;8.77;96.59;95260.27;107212;1277;25467;-86
2023/11/15 00:59:53;;;;;;;33.70;13.10;;;;;;;8.76;96.69;95258.91;106901;1277;138883;-86
2023/11/15 01:02:21;;;;;;;23.30;10.30;;;;;;;8.77;96.62;95259.04;107249;1276;25526;-86
2023/11/15 01:04:49;;;;;;;19.40;9.50;;;;;;;8.78;96.86;95258.59;107308;1276;22565;-86
2023/11/15 01:07:15;;;;;;;22.40;11.40;;;;;;;8.78;96.87;95255.77;107003;1276;139235;-87
2023/11/15 01:09:41;;;;;;;26.00;12.60;;;;;;;8.79;96.88;95248.02;107027;1274;24277;-86
2023/11/15 01:12:08;;;;;;;11.00;6.10;;;;;;;8.79;96.91;95242.88;107157;1274;139001;-87
2023/11/15 01:14:34;;;;;;;21.70;11.10;;;;;;;8.80;96.56;95236.79;107224;1277;22659;-87
2023/11/15 01:17:00;;;;;;;20.80;10.10;;;;;;;8.80;96.87;95238.26;107257;1272;23221;-87
2023/11/15 01:19:26;;;;;;;8.20;4.00;;;;;;;8.80;96.53;95239.27;107148;1276;138200;-86
2023/11/15 01:21:52;;;;;;;12.90;6.50;;;;;;;8.81;96.44;95241.36;107138;1265;22583;-87
2023/11/15 01:24:19;;;;;;;6.80;4.50;;;;;;;8.82;96.54;95242.29;107132;1277;138494;-86
2023/11/15 01:26:45;;;;;;;4.50;2.40;;;;;;;8.83;96.39;95240.25;107272;1277;22532;-86
2023/11/15 01:29:11;;;;;;;3.40;2.30;;;;;;;8.83;96.50;95244.52;107242;1277;22575;-87
2023/11/15 01:31:37;;;;;;;4.90;2.50;;;;;;;8.85;96.58;95244.04;109934;1272;138751;-86
2023/11/15 01:34:03;;;;;;;3.30;1.40;;;;;;;8.85;96.60;95240.72;107225;1271;25295;-86
2023/11/15 01:36:29;;;;;;;5.30;2.10;;;;;;;8.85;96.64;95240.64;107161;1277;138851;-87
2023/11/15 01:38:55;;;;;;;3.10;1.60;;;;;;;8.86;96.88;95242.23;107262;1277;23031;-85
2023/11/15 01:41:23;;;;;;;4.30;2.90;;;;;;;8.86;96.88;95245.73;107112;1277;139258;-86
2023/11/15 01:43:51;;;;;;;4.10;2.40;;;;;;;8.86;96.95;95242.64;107262;1276;22552;-86
2023/11/15 01:46:17;;;;;;;4.40;3.30;;;;;;;8.86;96.99;95239.69;107302;1277;22536;-86
2023/11/15 01:48:43;;;;;;;14.30;7.90;;;;;;;8.87;97.41;95236.17;106961;1256;138045;-87
2023/11/15 01:51:10;;;;;;;3.80;2.00;;;;;;;8.86;97.78;95236.98;107273;1277;22535;-87
2023/11/15 01:53:36;;;;;;;11.40;7.20;;;;;;;8.85;97.96;95237.95;107126;1277;138302;-87
2023/11/15 01:56:03;;;;;;;9.50;6.50;;;;;;;8.83;98.42;95236.98;107335;1265;24349;-87
2023/11/15 01:58:29;;;;;;;8.60;4.70;;;;;;;8.82;98.60;95239.57;107249;1276;26504;-86
2023/11/15 02:00:55;;;;;;;18.30;10.50;;;;;;;8.81;98.91;95240.73;107174;1277;138430;-86
2023/11/15 02:03:21;;;;;;;7.80;4.60;;;;;;;8.80;99.16;95234.48;107302;1272;22537;-86
2023/11/15 02:05:47;;;;;;;22.10;11.70;;;;;;;8.78;99.15;95233.11;107165;1277;138435;-86
2023/11/15 02:08:13;;;;;;;14.20;6.70;;;;;;;8.78;99.35;95229.91;107236;1276;24273;-86
2023/11/15 02:10:39;;;;;;;9.60;4.80;;;;;;;8.74;99.14;95235.92;107301;1265;25355;-86
2023/11/15 02:13:22;;;;;;;16.70;7.90;;;;;;;8.70;99.57;95231.50;107007;1270;137918;-86
2023/11/15 02:15:50;;;;;;;15.20;7.50;;;;;;;8.67;99.93;95231.59;107257;1276;25474;-86
2023/11/15 02:18:17;;;;;;;14.70;7.60;;;;;;;8.65;100.00;95238.25;107188;1277;138407;-86
2023/11/15 02:20:43;;;;;;;10.00;5.20;;;;;;;8.63;100.00;95236.24;107229;1277;25284;-86
2023/11/15 02:23:09;;;;;;;17.20;10.00;;;;;;;8.63;100.00;95234.89;107249;1277;24062;-86
2023/11/15 02:25:37;;;;;;;10.60;5.70;;;;;;;8.63;100.00;95236.36;107011;1261;138943;-86
2023/11/15 02:28:03;;;;;;;5.50;2.20;;;;;;;8.61;100.00;95235.70;107195;1271;22680;-87
2023/11/15 02:30:29;;;;;;;12.00;6.20;;;;;;;8.58;100.00;95238.66;108738;1276;138110;-88
2023/11/15 02:32:55;;;;;;;11.80;7.10;;;;;;;8.57;100.00;95244.83;107664;1277;22658;-87
2023/11/15 02:35:22;;;;;;;3.80;2.20;;;;;;;8.55;100.00;95248.54;107222;1276;140469;-87
2023/11/15 02:37:48;;;;;;;4.50;1.40;;;;;;;8.49;100.00;95252.80;107286;1277;22541;-87
2023/11/15 02:40:15;;;;;;;4.20;2.10;;;;;;;8.43;100.00;95256.42;107228;1277;22548;-87
2023/11/15 02:42:42;;;;;;;4.30;2.60;;;;;;;8.40;100.00;95258.92;107190;1277;138767;-87
2023/11/15 02:45:08;;;;;;;5.80;3.60;;;;;;;8.35;100.00;95259.91;107285;1276;22543;-87
2023/11/15 02:47:34;;;;;;;6.70;4.00;;;;;;;8.31;100.00;95257.70;107225;1277;139066;-87
2023/11/15 02:50:00;;;;;;;7.10;3.40;;;;;;;8.27;100.00;95263.16;107248;1277;25092;-87
2023/11/15 02:52:27;;;;;;;2.10;1.40;;;;;;;8.22;100.00;95262.52;107250;1277;22534;-87
2023/11/15 02:54:53;;;;;;;3.80;2.50;;;;;;;8.21;100.00;95259.84;107202;1277;138015;-86
2023/11/15 02:57:20;;;;;;;3.60;2.90;;;;;;;8.18;100.00;95258.88;107277;1277;22607;-87
2023/11/15 02:59:46;;;;;;;4.80;3.10;;;;;;;8.14;100.00;95259.59;107599;1276;138437;-87
2023/11/15 03:02:14;;;;;;;3.20;1.80;;;;;;;8.11;100.00;95261.63;110368;1275;22314;-88
2023/11/15 03:04:41;;;;;;;3.20;2.00;;;;;;;8.07;100.00;95266.04;109212;1277;23233;-87
2023/11/15 03:07:06;;;;;;;6.10;4.50;;;;;;;8.03;100.00;95263.11;107161;1270;138159;-87
2023/11/15 03:09:33;;;;;;;4.40;3.00;;;;;;;8.00;100.00;95261.92;107279;1276;26594;-87
2023/11/15 03:11:59;;;;;;;4.80;3.10;;;;;;;7.99;100.00;95264.06;107316;1273;138655;-87
2023/11/15 03:14:27;;;;;;;3.00;2.50;;;;;;;7.98;100.00;95262.39;107192;1276;22594;-87
2023/11/15 03:16:53;;;;;;;3.10;2.00;;;;;;;7.96;100.00;95261.08;107269;1277;25444;-87
2023/11/15 03:19:20;;;;;;;3.00;2.60;;;;;;;7.92;100.00;95264.37;107181;1277;138051;-87
2023/11/15 03:21:46;;;;;;;3.50;2.40;;;;;;;7.89;100.00;95264.36;107113;1277;22798;-87
2023/11/15 03:24:12;;;;;;;4.50;2.50;;;;;;;7.88;100.00;95268.82;107174;1271;138051;-87
2023/11/15 03:26:38;;;;;;;3.70;2.00;;;;;;;7.83;100.00;95266.10;108959;1277;22229;-87
2023/11/15 03:29:05;;;;;;;3.90;3.20;;;;;;;7.78;100.00;95263.46;108881;1276;22643;-87
2023/11/15 03:31:31;;;;;;;2.30;1.70;;;;;;;7.74;100.00;95263.21;106909;1277;139145;-87
2023/11/15 03:33:56;;;;;;;1.90;1.40;;;;;;;7.71;100.00;95262.13;107252;1274;22600;-87
2023/11/15 03:36:22;;;;;;;2.90;1.50;;;;;;;7.68;100.00;95267.14;107171;1277;137950;-87
2023/11/15 03:38:48;;;;;;;6.00;4.40;;;;;;;7.67;100.00;95263.27;107260;1277;25304;-87
2023/11/15 03:41:14;;;;;;;3.80;3.10;;;;;;;7.67;100.00;95263.44;107121;1271;138447;-87
2023/11/15 03:43:41;;;;;;;3.60;2.80;;;;;;;7.66;100.00;95266.05;107249;1276;22533;-87
2023/11/15 03:46:07;;;;;;;4.00;3.40;;;;;;;7.64;100.00;95259.92;107271;1271;24201;-87
2023/11/15 03:48:33;;;;;;;3.30;2.80;;;;;;;7.62;100.00;95254.15;107206;1270;138009;-86
2023/11/15 03:50:59;;;;;;;2.80;1.90;;;;;;;7.60;100.00;95250.00;107218;1277;22562;-88
2023/11/15 03:53:25;;;;;;;3.40;2.70;;;;;;;7.59;100.00;95250.68;107106;1267;138187;-87
2023/11/15 03:55:52;;;;;;;3.30;3.00;;;;;;;7.58;100.00;95250.13;107272;1277;24325;-87
2023/11/15 03:58:18;;;;;;;3.50;2.90;;;;;;;7.57;100.00;95248.33;107345;1276;23421;-87
2023/11/15 04:00:44;;;;;;;3.00;2.50;;;;;;;7.56;100.00;95248.24;106970;1277;138022;-87
2023/11/15 04:03:10;;;;;;;2.00;1.70;;;;;;;7.57;100.00;95246.81;107314;1277;22659;-87
2023/11/15 04:05:36;;;;;;;2.20;2.00;;;;;;;7.57;100.00;95246.33;107184;1276;138594;-87
2023/11/15 04:08:02;;;;;;;2.90;2.50;;;;;;;7.58;100.00;95248.45;107310;1277;23919;-87
2023/11/15 04:10:28;;;;;;;2.80;2.30;;;;;;;7.57;100.00;95246.48;107233;1277;25413;-87
2023/11/15 04:12:55;;;;;;;2.00;1.60;;;;;;;7.55;100.00;95241.36;107178;1276;138005;-87
2023/11/15 04:15:22;;;;;;;2.50;2.10;;;;;;;7.53;100.00;95241.20;107296;1277;25113;-87
2023/11/15 04:17:49;;;;;;;1.90;1.50;;;;;;;7.52;100.00;95241.23;107104;1272;138690;-87
2023/11/15 04:20:14;;;;;;;2.00;1.50;;;;;;;7.51;100.00;95238.40;107219;1277;22537;-88
2023/11/15 04:22:40;;;;;;;3.20;1.90;;;;;;;7.48;100.00;95241.98;107271;1277;22555;-87
2023/11/15 04:25:07;;;;;;;2.60;2.00;;;;;;;7.49;100.00;95239.20;107133;1276;138621;-87
2023/11/15 04:27:33;;;;;;;2.70;1.90;;;;;;;7.48;100.00;95234.25;107259;1276;22586;-87
2023/11/15 04:29:59;;;;;;;4.90;2.80;;;;;;;7.46;100.00;95239.30;107102;1272;138169;-87
2023/11/15 04:32:25;;;;;;;11.60;6.90;;;;;;;7.44;100.00;95235.77;107266;1277;22557;-87
2023/11/15 04:34:52;;;;;;;8.50;5.40;;;;;;;7.44;100.00;95233.05;107327;1277;25371;-87
2023/11/15 04:37:19;;;;;;;5.50;3.90;;;;;;;7.42;100.00;95231.34;107144;1277;138175;-87
2023/11/15 04:39:47;;;;;;;3.30;2.90;;;;;;;7.40;100.00;95229.54;110216;1278;22194;-88
2023/11/15 04:42:13;;;;;;;3.80;2.20;;;;;;;7.39;100.00;95228.42;110245;1276;138382;-88
2023/11/15 04:44:39;;;;;;;4.50;2.90;;;;;;;7.38;100.00;95228.54;110346;1276;22968;-87
2023/11/15 04:47:05;;;;;;;3.90;2.70;;;;;;;7.38;100.00;95225.55;108904;1274;22545;-88
2023/11/15 04:49:31;;;;;;;4.00;2.70;;;;;;;7.37;100.00;95223.37;106931;1278;137975;-87
2023/11/15 04:51:57;;;;;;;4.00;3.40;;;;;;;7.38;100.00;95223.30;107251;1277;25369;-87
2023/11/15 04:54:23;;;;;;;4.00;2.80;;;;;;;7.37;100.00;95222.53;108568;1277;138127;-88
2023/11/15 04:56:49;;;;;;;2.50;2.10;;;;;;;7.36;100.00;95223.88;110205;1277;22317;-88
2023/11/15 04:59:15;;;;;;;3.80;3.20;;;;;;;7.37;100.00;95224.88;110224;1277;139256;-87
2023/11/15 05:01:45;;;;;;;3.10;2.80;;;;;;;7.37;100.00;95224.08;110318;1270;22206;-88
2023/11/15 05:04:14;;;;;;;3.90;2.90;;;;;;;7.39;100.00;95230.60;107616;1277;22776;-87
2023/11/15 05:06:41;;;;;;;4.50;3.20;;;;;;;7.38;100.00;95228.94;107200;1277;138422;-87
2023/11/15 05:09:08;;;;;;;3.60;2.90;;;;;;;7.39;100.00;95230.96;107300;1275;22538;-87
2023/11/15 05:11:34;;;;;;;2.40;2.20;;;;;;;7.40;100.00;95228.02;107311;1277;138589;-87
2023/11/15 05:14:01;;;;;;;2.10;1.80;;;;;;;7.42;100.00;95234.04;110361;1277;22171;-88
2023/11/15 05:16:28;;;;;;;1.80;1.30;;;;;;;7.42;100.00;95230.91;107946;1277;23209;-87
2023/11/15 05:18:54;;;;;;;1.70;1.20;;;;;;;7.42;100.00;95234.59;106955;1278;138900;-87
2023/11/15 05:21:20;;;;;;;2.20;1.80;;;;;;;7.42;100.00;95231.41;107173;1277;24239;-87
2023/11/15 05:23:45;;;;;;;1.60;1.10;;;;;;;7.43;100.00;95230.75;107733;1267;138569;-88
2023/11/15 05:26:12;;;;;;;28.40;8.30;;;;;;;7.43;100.00;95225.70;110407;1277;23128;-87
2023/11/15 05:28:38;;;;;;;33.70;9.00;;;;;;;7.44;100.00;95228.25;108035;1276;24244;-87
2023/11/15 05:31:04;;;;;;;22.40;7.20;;;;;;;7.43;100.00;95227.95;107167;1277;138925;-87
2023/11/15 05:33:30;;;;;;;33.60;9.70;;;;;;;7.44;100.00;95229.83;107273;1277;24293;-87
2023/11/15 05:35:56;;;;;;;38.40;11.50;;;;;;;7.44;100.00;95232.66;107182;1277;138309;-87
2023/11/15 05:38:24;;;;;;;38.00;13.70;;;;;;;7.43;100.00;95236.43;107238;1277;23580;-87
2023/11/15 05:40:50;;;;;;;198.70;75.60;;;;;;;7.43;100.00;95236.31;107216;1269;22571;-87
2023/11/15 05:43:16;;;;;;;170.10;66.30;;;;;;;7.44;100.00;95238.61;107109;1277;139834;-86
2023/11/15 05:45:42;;;;;;;31.50;13.70;;;;;;;7.44;100.00;95241.16;107250;1276;25335;-87
2023/11/15 05:48:08;;;;;;;16.80;7.20;;;;;;;7.43;100.00;95248.80;107118;1255;139119;-87
2023/11/15 05:50:34;;;;;;;29.40;9.90;;;;;;;7.42;100.00;95245.85;107198;1277;22715;-87
2023/11/15 05:53:00;;;;;;;7.40;3.30;;;;;;;7.42;100.00;95253.96;107248;1276;24338;-87
2023/11/15 05:55:26;;;;;;;67.10;34.90;;;;;;;7.41;100.00;95262.51;107068;1277;138345;-87
2023/11/15 05:57:52;;;;;;;39.10;15.90;;;;;;;7.41;100.00;95263.73;107249;1271;23134;-87
2023/11/15 06:00:21;;;;;;;38.80;15.00;;;;;;;7.42;100.00;95269.90;107144;1277;138286;-87
2023/11/15 06:02:47;;;;;;;17.70;6.60;;;;;;;7.42;100.00;95277.02;107256;1277;22582;-87
2023/11/15 06:05:14;;;;;;;12.90;5.10;;;;;;;7.42;100.00;95276.54;107274;1277;24259;-87
2023/11/15 06:07:40;;;;;;;6.80;2.90;;;;;;;7.42;100.00;95279.20;107163;1271;22536;-87
2023/11/15 06:10:08;;;;;;;9.90;5.00;;;;;;;7.42;100.00;95282.67;107078;1278;25172;-87
2023/11/15 06:12:35;;;;;;;6.00;3.20;;;;;;;7.43;100.00;95291.94;108522;1277;137970;-87
2023/11/15 06:15:08;;;;;;;10.50;4.70;;;;;;;7.43;100.00;95294.16;110212;1278;22252;-88
2023/11/15 06:17:35;;;;;;;5.70;4.00;;;;;;;7.44;100.00;95291.95;109099;1278;138351;-87
2023/11/15 06:20:01;;;;;;;13.20;6.70;;;;;;;7.46;100.00;95297.63;107092;1278;22549;-87
2023/11/15 06:22:28;;;;;;;11.60;5.90;;;;;;;7.47;100.00;95299.59;107154;1277;22976;-87
2023/11/15 06:24:54;;;;;;;11.50;5.90;;;;;;;7.48;100.00;95305.77;107044;1278;138542;-86
2023/11/15 06:27:20;;;;;;;23.10;11.80;;;;;;;7.48;100.00;95301.27;107182;1266;22548;-87
2023/11/15 06:29:47;;;;;;;15.10;8.70;;;;;;;7.49;100.00;95301.30;106975;1279;138520;-87
2023/11/15 06:32:14;;;;;;;8.20;5.20;;;;;;;7.50;100.00;95305.92;107000;1279;24628;-87
2023/11/15 06:34:40;;;;;;;9.70;4.40;;;;;;;7.49;100.00;95304.84;107029;1279;24377;-87
2023/11/15 06:37:06;;;;;;;8.20;6.10;;;;;;;7.48;100.00;95308.85;107064;1277;138011;-87
2023/11/15 06:39:32;;;;;;;15.60;9.40;;;;;;;7.47;100.00;95308.26;107195;1278;22648;-87
2023/11/15 06:41:58;;;;;;;11.90;7.90;;;;;;;7.48;100.00;95315.24;107017;1272;139012;-87
2023/11/15 06:44:24;;;;;;;20.50;13.70;;;;;;;7.49;100.00;95311.17;107068;1278;25622;-87
2023/11/15 06:46:50;;;;;;;18.90;11.20;;;;;;;7.50;100.00;95315.19;107129;1278;25513;-87
2023/11/15 06:49:17;;;;;;;18.30;11.30;;;;;;;7.50;100.00;95316.34;106968;1278;139148;-87
2023/11/15 06:51:47;;;;;;;15.20;8.60;;;;;;;7.50;100.00;95326.04;107163;1272;25254;-87
2023/11/15 06:54:13;;;;;;;11.00;5.90;;;;;;;7.50;100.00;95323.14;107038;1270;138246;-86
2023/11/15 06:56:39;;;;;;;19.20;10.70;;;;;;;7.51;100.00;95328.75;107194;1277;22591;-87
2023/11/15 06:59:06;;;;;;;15.30;9.40;;;;;;;7.51;100.00;95332.97;107112;1278;26397;-87
2023/11/15 07:01:32;;;;;;;23.20;14.10;;;;;;;7.51;100.00;95332.48;107056;1258;138227;-87
2023/11/15 07:03:58;;;;;;;17.90;9.30;;;;;;;7.52;100.00;95337.02;107100;1278;24268;-87
2023/11/15 07:06:27;;;;;;;10.20;5.70;;;;;;;7.53;100.00;95338.46;107086;1277;138728;-87
2023/11/15 07:08:53;;;;;;;3.50;3.10;;;;;;;7.54;100.00;95342.16;107274;1277;26607;-88
2023/11/15 07:11:21;;;;;;;6.70;6.00;;;;;;;7.52;100.00;95342.68;107065;1265;138370;-86
2023/11/15 07:13:47;;;;;;;13.60;7.70;;;;;;;7.53;100.00;95341.21;107092;1274;22552;-87
2023/11/15 07:16:13;;;;;;;12.10;7.10;;;;;;;7.54;100.00;95343.48;107163;1272;22539;-86
2023/11/15 07:18:39;;;;;;;15.10;8.60;;;;;;;7.56;100.00;95340.31;106969;1278;138271;-86
2023/11/15 07:21:07;;;;;;;8.90;5.60;;;;;;;7.57;100.00;95344.65;107107;1277;22617;-87
2023/11/15 07:23:33;;;;;;;5.70;5.20;;;;;;;7.59;100.00;95345.49;107000;1274;138196;-87
2023/11/15 07:25:59;;;;;;;6.20;5.60;;;;;;;7.59;100.00;95346.65;107092;1278;25398;-87
2023/11/15 07:28:25;;;;;;;16.60;9.90;;;;;;;7.59;100.00;95348.08;107026;1276;23458;-87
2023/11/15 07:30:51;;;;;;;9.30;8.40;;;;;;;7.60;100.00;95345.73;107003;1278;138274;-86
2023/11/15 07:33:19;;;;;;;7.10;6.30;;;;;;;7.60;100.00;95352.54;107110;1260;22542;-87
2023/11/15 07:35:46;;;;;;;10.90;8.00;;;;;;;7.62;100.00;95354.45;110163;1277;138218;-86
2023/11/15 07:38:13;;;;;;;6.60;5.80;;;;;;;7.64;100.00;95359.20;110284;1275;23085;-87
2023/11/15 07:40:40;;;;;;;9.30;6.80;;;;;;;7.64;100.00;95354.45;110160;1278;22180;-87
2023/11/15 07:43:06;;;;;;;4.60;3.70;;;;;;;7.65;100.00;95366.40;109889;1271;138335;-87
2023/11/15 07:45:35;;;;;;;5.40;4.90;;;;;;;7.67;100.00;95368.99;108185;1278;22568;-86
2023/11/15 07:48:05;;;;;;;11.00;7.50;;;;;;;7.68;100.00;95371.39;107001;1278;138200;-87
2023/11/15 07:50:32;;;;;;;5.70;4.40;;;;;;;7.70;100.00;95374.66;107171;1277;25462;-86
2023/11/15 07:52:58;;;;;;;5.90;4.30;;;;;;;7.71;100.00;95379.67;107163;1271;23347;-86
2023/11/15 07:55:24;;;;;;;5.60;3.50;;;;;;;7.72;100.00;95382.79;107003;1278;138164;-86
2023/11/15 07:57:50;;;;;;;11.80;7.30;;;;;;;7.73;100.00;95389.68;107128;1278;23935;-87
2023/11/15 08:00:22;;;;;;;5.60;5.10;;;;;;;7.76;100.00;95391.80;107028;1279;138951;-87
2023/11/15 08:02:51;;;;;;;11.90;7.30;;;;;;;7.77;100.00;95395.94;110201;1278;22219;-87
2023/11/15 08:05:17;;;;;;;8.10;7.30;;;;;;;7.78;100.00;95397.86;110090;1278;138406;-86
2023/11/15 08:07:45;;;;;;;6.00;5.20;;;;;;;7.80;100.00;95396.60;110030;1277;22985;-87
2023/11/15 08:10:13;;;;;;;7.40;6.60;;;;;;;7.83;100.00;95405.60;110015;1278;22186;-87
2023/11/15 08:12:40;;;;;;;7.10;6.40;;;;;;;7.87;100.00;95414.13;110118;1278;139497;-87
2023/11/15 08:15:07;;;;;;;6.70;6.00;;;;;;;7.89;100.00;95415.92;107366;1278;24181;-86
2023/11/15 08:17:35;;;;;;;8.80;7.90;;;;;;;7.90;100.00;95418.72;107017;1278;138224;-87
2023/11/15 08:20:04;;;;;;;5.80;5.20;;;;;;;7.92;100.00;95421.88;107177;1278;23475;-87
2023/11/15 08:22:31;;;;;;;8.40;7.60;;;;;;;7.92;100.00;95425.38;107153;1273;22551;-86
2023/11/15 08:24:57;;;;;;;7.70;6.90;;;;;;;7.90;100.00;95426.95;107007;1278;138167;-86
2023/11/15 08:27:23;;;;;;;8.50;7.70;;;;;;;7.90;100.00;95429.38;107154;1278;22675;-87
2023/11/15 08:29:50;;;;;;;6.40;5.80;;;;;;;7.90;100.00;95439.92;107014;1278;138177;-86
2023/11/15 08:32:16;;;;;;;6.60;5.80;;;;;;;7.90;100.00;95440.09;107101;1266;24351;-86
2023/11/15 08:34:42;;;;;;;8.20;5.70;;;;;;;7.90;100.00;95447.25;107079;1276;22527;-87
2023/11/15 08:37:08;;;;;;;7.30;6.60;;;;;;;7.89;100.00;95453.17;106860;1278;215854;-87
2023/11/15 08:39:34;;;;;;;8.30;7.20;;;;;;;7.89;100.00;95457.63;107100;1278;22558;-87
2023/11/15 08:42:00;;;;;;;5.30;4.80;;;;;;;7.88;100.00;95465.30;107113;1278;138712;-86
2023/11/15 08:44:26;;;;;;;21.80;12.20;;;;;;;7.87;100.00;95473.18;107110;1278;22543;-87
2023/11/15 08:46:52;;;;;;;6.80;4.70;;;;;;;7.88;100.00;95475.60;107157;1277;23131;-86
2023/11/15 08:49:18;;;;;;;4.90;4.40;;;;;;;7.86;100.00;95478.98;107003;1278;138746;-87
2023/11/15 08:51:50;;;;;;;4.80;4.30;;;;;;;7.83;100.00;95483.82;107103;1278;24381;-87
2023/11/15 08:54:16;;;;;;;6.10;4.60;;;;;;;7.81;100.00;95499.46;107065;1278;137910;-86
2023/11/15 08:56:42;;;;;;;13.10;8.40;;;;;;;7.80;100.00;95504.00;107097;1278;22772;-87
2023/11/15 08:59:13;;;;;;;18.40;11.30;;;;;;;7.77;100.00;95507.70;107166;1278;22549;-86
2023/11/15 09:01:41;;;;;;;10.90;7.70;;;;;;;7.74;100.00;95514.91;107157;1277;138643;-87
2023/11/15 09:04:07;;;;;;;17.20;10.00;;;;;;;7.73;100.00;95524.90;107499;1277;25406;-87
2023/11/15 09:06:37;;;;;;;22.80;11.80;;;;;;;7.73;100.00;95527.45;107167;1270;138360;-87
2023/11/15 09:09:04;;;;;;;10.20;5.40;;;;;;;7.74;100.00;95536.00;107301;1277;23266;-87
2023/11/15 09:11:31;;;;;;;9.80;5.10;;;;;;;7.73;100.00;95539.41;107115;1277;138383;-87
2023/11/15 09:13:58;;;;;;;13.30;6.60;;;;;;;7.71;100.00;95542.89;107280;1275;24161;-86
2023/11/15 09:16:25;;;;;;;11.60;6.90;;;;;;;7.70;100.00;95549.29;107290;1271;25413;-86
2023/11/15 09:18:52;;;;;;;6.20;3.80;;;;;;;7.69;100.00;95557.77;107118;1277;138931;-87
2023/11/15 09:21:18;;;;;;;6.50;4.70;;;;;;;7.68;100.00;95559.98;107085;1277;25286;-87
2023/11/15 09:23:44;;;;;;;10.50;6.30;;;;;;;7.67;100.00;95560.48;106982;1267;138970;-87
2023/11/15 09:26:15;;;;;;;7.50;5.20;;;;;;;7.65;100.00;95563.60;107277;1277;22822;-87
2023/11/15 09:28:41;;;;;;;8.50;5.70;;;;;;;7.65;100.00;95568.49;107173;1277;23173;-87
2023/11/15 09:31:07;;;;;;;7.20;5.40;;;;;;;7.63;100.00;95572.80;107174;1275;137964;-87
2023/11/15 09:33:34;;;;;;;8.40;6.40;;;;;;;7.62;100.00;95578.15;107284;1277;22548;-87
2023/11/15 09:36:01;;;;;;;7.90;5.70;;;;;;;7.62;100.00;95584.20;107954;1276;138767;-87
2023/11/15 09:38:27;;;;;;;15.40;9.90;;;;;;;7.61;100.00;95587.50;110352;1271;23004;-87
2023/11/15 09:40:53;;;;;;;10.50;6.40;;;;;;;7.62;100.00;95591.71;110329;1277;22257;-88
2023/11/15 09:43:19;;;;;;;7.90;5.60;;;;;;;7.62;100.00;95585.99;110086;1274;138131;-88
2023/11/15 09:45:46;;;;;;;9.50;7.10;;;;;;;7.62;100.00;95594.30;109270;1277;22537;-86
2023/11/15 09:48:12;;;;;;;8.80;5.70;;;;;;;7.64;100.00;95597.22;106937;1276;138222;-86
2023/11/15 09:50:41;;;;;;;7.90;6.60;;;;;;;7.64;100.00;95602.03;107066;1277;22638;-87
2023/11/15 09:53:07;;;;;;;8.00;6.40;;;;;;;7.63;100.00;95604.38;107241;1277;25461;-87
2023/11/15 09:55:33;;;;;;;9.00;7.00;;;;;;;7.61;100.00;95610.08;107166;1277;138018;-87
2023/11/15 09:57:59;;;;;;;19.90;10.60;;;;;;;7.62;100.00;95609.65;107253;1277;24237;-87
2023/11/15 10:00:29;;;;;;;37.80;15.60;;;;;;;7.63;100.00;95613.64;108478;1277;139057;-88
2023/11/15 10:02:55;;;;;;;11.40;6.80;;;;;;;7.63;100.00;95615.16;108555;1275;25322;-87
2023/11/15 10:05:29;;;;;;;9.50;7.10;;;;;;;7.62;100.00;95617.45;107026;1277;138382;-86
2023/11/15 10:08:08;;;;;;;8.30;6.40;;;;;;;7.62;100.00;95616.50;110313;1275;22315;-88
2023/11/15 10:10:34;;;;;;;7.10;5.60;;;;;;;7.61;100.00;95620.11;109144;1266;22604;-87
2023/11/15 10:13:10;;;;;;;6.80;5.90;;;;;;;7.61;100.00;95631.00;107179;1276;138755;-87
2023/11/15 10:15:36;;;;;;;8.80;5.90;;;;;;;7.62;100.00;95638.25;107278;1276;22586;-88
2023/11/15 10:18:03;;;;;;;8.00;5.50;;;;;;;7.63;100.00;95638.79;107951;1276;138392;-88
2023/11/15 10:20:30;;;;;;;7.80;5.80;;;;;;;7.64;100.00;95640.47;110139;1270;23182;-88
2023/11/15 10:22:57;;;;;;;8.20;6.20;;;;;;;7.65;100.00;95641.23;108228;1277;25291;-87
2023/11/15 10:25:26;;;;;;;6.00;5.10;;;;;;;7.66;100.00;95648.15;110232;1277;138499;-88
2023/11/15 10:28:10;;;;;;;6.50;4.90;;;;;;;7.66;100.00;95655.35;110233;1266;22410;-88
2023/11/15 10:30:36;;;;;;;6.20;5.20;;;;;;;7.66;100.00;95658.20;108924;1277;138295;-87
2023/11/15 10:33:13;;;;;;;5.20;4.50;;;;;;;7.66;100.00;95654.99;107267;1272;22549;-87
2023/11/15 10:35:40;;;;;;;8.80;5.70;;;;;;;7.67;100.00;95658.90;108293;1277;138176;-87
2023/11/15 10:38:14;;;;;;;5.60;4.80;;;;;;;7.68;100.00;95660.59;107278;1277;22679;-87
2023/11/15 10:40:41;;;;;;;11.50;6.90;;;;;;;7.67;100.00;95663.20;107222;1277;24358;-87
2023/11/15 10:43:07;;;;;;;18.40;11.30;;;;;;;7.64;100.00;95667.67;107165;1277;138162;-87
2023/11/15 10:45:34;;;;;;;10.10;6.80;;;;;;;7.63;100.00;95667.30;107221;1267;22545;-87
2023/11/15 10:48:04;;;;;;;12.20;7.50;;;;;;;7.63;100.00;95671.27;107153;1277;139699;-88
2023/11/15 10:50:33;;;;;;;13.60;6.90;;;;;;;7.61;100.00;95674.64;107110;1277;24389;-87
2023/11/15 10:53:00;;;;;;;16.50;9.40;;;;;;;7.59;100.00;95672.95;107279;1277;22538;-87
2023/11/15 10:55:30;;;;;;;9.80;6.40;;;;;;;7.58;100.00;95672.87;106874;1276;138185;-87
2023/11/15 10:58:02;;;;;;;8.30;6.10;;;;;;;7.57;100.00;95674.08;107185;1277;22657;-87
2023/11/15 11:00:34;;;;;;;16.00;9.30;;;;;;;7.58;100.00;95677.94;107151;1277;138521;-87
2023/11/15 11:03:01;;;;;;;14.50;8.40;;;;;;;7.57;100.00;95679.38;107185;1276;24346;-88
2023/11/15 11:05:40;;;;;;;19.20;11.10;;;;;;;7.56;100.00;95690.51;107056;1276;138403;-87
2023/11/15 11:08:14;;;;;;;10.60;6.90;;;;;;;7.56;100.00;95693.19;107279;1276;22543;-87
2023/11/15 11:10:53;;;;;;;13.70;8.10;;;;;;;7.57;100.00;95696.23;107250;1277;22646;-87
2023/11/15 11:13:22;;;;;;;13.00;9.30;;;;;;;7.59;100.00;95691.92;107090;1277;138116;-87
2023/11/15 11:15:49;;;;;;;11.90;6.90;;;;;;;7.58;100.00;95693.39;110149;1276;22217;-88
2023/11/15 11:18:16;;;;;;;8.00;5.80;;;;;;;7.60;100.00;95696.46;107179;1276;138434;-87